sensor_id;sensor_type;location;lat;lon;timestamp;P1;durP1;ratioP1;P2;durP2;ratioP2
21424;SDS011;10873;51.132;16.848;2022-12-18T00:02:22;30.48;;;20.60;;
21424;SDS011;10873;51.132;16.848;2022-12-18T00:07:23;29.95;;;20.02;;
21424;SDS011;10873;51.132;16.848;2022-12-18T00:09:49;30.52;;;19.38;;
21424;SDS011;10873;51.132;16.848;2022-12-18T00:12:16;33.47;;;20.42;;
21424;SDS011;10873;51.132;16.848;2022-12-18T00:14:43;30.58;;;20.65;;
21424;SDS011;10873;51.132;16.848;2022-12-18T00:17:09;29.88;;;20.30;;
21424;SDS011;10873;51.132;16.848;2022-12-18T00:19:35;28.85;;;19.35;;
21424;SDS011;10873;51.132;16.848;2022-12-18T00:22:01;31.63;;;19.83;;
21424;SDS011;10873;51.132;16.848;2022-12-18T00:24:27;32.00;;;20.23;;
21424;SDS011;10873;51.132;16.848;2022-12-18T00:26:53;30.67;;;19.50;;
21424;SDS011;10873;51.132;16.848;2022-12-18T00:29:20;29.23;;;19.33;;
21424;SDS011;10873;51.132;16.848;2022-12-18T00:31:46;28.83;;;18.95;;
21424;SDS011;10873;51.132;16.848;2022-12-18T00:34:12;30.27;;;18.92;;
21424;SDS011;10873;51.132;16.848;2022-12-18T00:36:39;26.60;;;17.50;;
21424;SDS011;10873;51.132;16.848;2022-12-18T00:39:06;27.90;;;18.15;;
21424;SDS011;10873;51.132;16.848;2022-12-18T00:41:32;28.50;;;17.55;;
21424;SDS011;10873;51.132;16.848;2022-12-18T00:44:17;26.35;;;17.52;;
21424;SDS011;10873;51.132;16.848;2022-12-18T00:46:46;26.90;;;17.13;;
21424;SDS011;10873;51.132;16.848;2022-12-18T00:49:13;25.08;;;16.90;;
21424;SDS011;10873;51.132;16.848;2022-12-18T00:51:39;27.23;;;17.50;;
21424;SDS011;10873;51.132;16.848;2022-12-18T00:54:05;26.30;;;17.45;;
21424;SDS011;10873;51.132;16.848;2022-12-18T00:56:31;25.40;;;16.60;;
21424;SDS011;10873;51.132;16.848;2022-12-18T00:58:57;25.00;;;16.85;;
21424;SDS011;10873;51.132;16.848;2022-12-18T01:01:23;24.30;;;16.10;;
21424;SDS011;10873;51.132;16.848;2022-12-18T01:03:50;26.20;;;16.42;;
21424;SDS011;10873;51.132;16.848;2022-12-18T01:06:16;25.05;;;16.45;;
21424;SDS011;10873;51.132;16.848;2022-12-18T01:08:43;23.58;;;15.90;;
21424;SDS011;10873;51.132;16.848;2022-12-18T01:11:10;24.23;;;16.25;;
21424;SDS011;10873;51.132;16.848;2022-12-18T01:13:37;22.83;;;15.63;;
21424;SDS011;10873;51.132;16.848;2022-12-18T01:16:03;25.77;;;16.52;;
21424;SDS011;10873;51.132;16.848;2022-12-18T01:18:30;25.52;;;16.02;;
21424;SDS011;10873;51.132;16.848;2022-12-18T01:20:57;24.30;;;16.00;;
21424;SDS011;10873;51.132;16.848;2022-12-18T01:23:23;22.27;;;16.00;;
21424;SDS011;10873;51.132;16.848;2022-12-18T01:25:49;23.00;;;15.23;;
21424;SDS011;10873;51.132;16.848;2022-12-18T01:28:15;21.27;;;15.23;;
21424;SDS011;10873;51.132;16.848;2022-12-18T01:30:41;24.42;;;15.68;;
21424;SDS011;10873;51.132;16.848;2022-12-18T01:33:07;21.67;;;15.20;;
21424;SDS011;10873;51.132;16.848;2022-12-18T01:35:33;23.38;;;16.25;;
21424;SDS011;10873;51.132;16.848;2022-12-18T01:38:06;23.50;;;15.50;;
21424;SDS011;10873;51.132;16.848;2022-12-18T01:40:32;24.40;;;15.43;;
21424;SDS011;10873;51.132;16.848;2022-12-18T01:42:58;21.73;;;15.30;;
21424;SDS011;10873;51.132;16.848;2022-12-18T01:45:25;24.33;;;15.88;;
21424;SDS011;10873;51.132;16.848;2022-12-18T01:47:53;23.15;;;15.32;;
21424;SDS011;10873;51.132;16.848;2022-12-18T01:50:22;22.88;;;15.57;;
21424;SDS011;10873;51.132;16.848;2022-12-18T01:52:52;24.70;;;16.27;;
21424;SDS011;10873;51.132;16.848;2022-12-18T01:55:22;22.98;;;15.68;;
21424;SDS011;10873;51.132;16.848;2022-12-18T01:57:50;23.58;;;16.02;;
21424;SDS011;10873;51.132;16.848;2022-12-18T02:00:20;25.23;;;16.50;;
21424;SDS011;10873;51.132;16.848;2022-12-18T02:02:47;25.63;;;16.77;;
21424;SDS011;10873;51.132;16.848;2022-12-18T02:05:14;23.52;;;16.52;;
21424;SDS011;10873;51.132;16.848;2022-12-18T02:07:45;28.42;;;17.52;;
21424;SDS011;10873;51.132;16.848;2022-12-18T02:10:19;24.75;;;17.73;;
21424;SDS011;10873;51.132;16.848;2022-12-18T02:12:53;25.13;;;17.40;;
21424;SDS011;10873;51.132;16.848;2022-12-18T02:15:27;25.65;;;17.67;;
21424;SDS011;10873;51.132;16.848;2022-12-18T02:18:01;29.02;;;18.33;;
21424;SDS011;10873;51.132;16.848;2022-12-18T02:20:33;26.70;;;17.77;;
21424;SDS011;10873;51.132;16.848;2022-12-18T02:23:06;28.13;;;18.77;;
21424;SDS011;10873;51.132;16.848;2022-12-18T02:25:52;26.98;;;17.63;;
21424;SDS011;10873;51.132;16.848;2022-12-18T02:28:29;30.13;;;19.42;;
21424;SDS011;10873;51.132;16.848;2022-12-18T02:30:59;30.63;;;19.60;;
21424;SDS011;10873;51.132;16.848;2022-12-18T02:33:29;26.08;;;17.65;;
21424;SDS011;10873;51.132;16.848;2022-12-18T02:35:58;26.42;;;18.30;;
21424;SDS011;10873;51.132;16.848;2022-12-18T02:38:26;27.38;;;18.13;;
21424;SDS011;10873;51.132;16.848;2022-12-18T02:40:55;25.33;;;16.65;;
21424;SDS011;10873;51.132;16.848;2022-12-18T02:43:23;27.15;;;17.60;;
21424;SDS011;10873;51.132;16.848;2022-12-18T02:45:49;25.63;;;17.63;;
21424;SDS011;10873;51.132;16.848;2022-12-18T02:48:18;25.15;;;17.05;;
21424;SDS011;10873;51.132;16.848;2022-12-18T02:50:51;25.88;;;17.10;;
21424;SDS011;10873;51.132;16.848;2022-12-18T02:53:24;23.13;;;15.95;;
21424;SDS011;10873;51.132;16.848;2022-12-18T02:55:59;23.40;;;16.05;;
21424;SDS011;10873;51.132;16.848;2022-12-18T02:58:32;24.40;;;16.70;;
21424;SDS011;10873;51.132;16.848;2022-12-18T03:01:05;23.67;;;15.55;;
21424;SDS011;10873;51.132;16.848;2022-12-18T03:03:38;23.60;;;16.08;;
21424;SDS011;10873;51.132;16.848;2022-12-18T03:06:07;23.08;;;16.00;;
21424;SDS011;10873;51.132;16.848;2022-12-18T03:08:38;25.50;;;16.00;;
21424;SDS011;10873;51.132;16.848;2022-12-18T03:11:09;24.15;;;16.10;;
21424;SDS011;10873;51.132;16.848;2022-12-18T03:13:39;23.58;;;15.45;;
21424;SDS011;10873;51.132;16.848;2022-12-18T03:16:09;24.55;;;15.45;;
21424;SDS011;10873;51.132;16.848;2022-12-18T03:18:39;26.00;;;16.13;;
21424;SDS011;10873;51.132;16.848;2022-12-18T03:21:10;24.25;;;15.18;;
21424;SDS011;10873;51.132;16.848;2022-12-18T03:23:40;21.90;;;14.88;;
21424;SDS011;10873;51.132;16.848;2022-12-18T03:26:12;22.08;;;14.88;;
21424;SDS011;10873;51.132;16.848;2022-12-18T03:28:42;23.38;;;14.90;;
21424;SDS011;10873;51.132;16.848;2022-12-18T03:31:11;20.67;;;13.93;;
21424;SDS011;10873;51.132;16.848;2022-12-18T03:33:40;21.38;;;14.90;;
21424;SDS011;10873;51.132;16.848;2022-12-18T03:36:11;22.02;;;14.68;;
21424;SDS011;10873;51.132;16.848;2022-12-18T03:38:37;21.63;;;14.73;;
21424;SDS011;10873;51.132;16.848;2022-12-18T03:41:05;23.20;;;14.15;;
21424;SDS011;10873;51.132;16.848;2022-12-18T03:43:41;22.30;;;13.68;;
21424;SDS011;10873;51.132;16.848;2022-12-18T03:46:14;20.90;;;14.23;;
21424;SDS011;10873;51.132;16.848;2022-12-18T03:48:51;20.42;;;14.38;;
21424;SDS011;10873;51.132;16.848;2022-12-18T03:51:23;21.70;;;14.55;;
21424;SDS011;10873;51.132;16.848;2022-12-18T03:53:54;20.52;;;13.77;;
21424;SDS011;10873;51.132;16.848;2022-12-18T03:56:25;19.77;;;13.70;;
21424;SDS011;10873;51.132;16.848;2022-12-18T03:58:55;20.88;;;14.07;;
21424;SDS011;10873;51.132;16.848;2022-12-18T04:01:23;19.20;;;13.15;;
21424;SDS011;10873;51.132;16.848;2022-12-18T04:03:54;21.73;;;14.93;;
21424;SDS011;10873;51.132;16.848;2022-12-18T04:06:21;20.77;;;14.07;;
21424;SDS011;10873;51.132;16.848;2022-12-18T04:08:48;18.50;;;12.70;;
21424;SDS011;10873;51.132;16.848;2022-12-18T04:11:14;21.90;;;13.75;;
21424;SDS011;10873;51.132;16.848;2022-12-18T04:13:42;21.90;;;13.52;;
21424;SDS011;10873;51.132;16.848;2022-12-18T04:16:08;22.15;;;14.13;;
21424;SDS011;10873;51.132;16.848;2022-12-18T04:18:35;19.65;;;13.52;;
21424;SDS011;10873;51.132;16.848;2022-12-18T04:21:01;19.92;;;13.05;;
21424;SDS011;10873;51.132;16.848;2022-12-18T04:23:28;20.42;;;14.20;;
21424;SDS011;10873;51.132;16.848;2022-12-18T04:25:54;19.55;;;13.25;;
21424;SDS011;10873;51.132;16.848;2022-12-18T04:28:20;20.13;;;12.77;;
21424;SDS011;10873;51.132;16.848;2022-12-18T04:30:47;19.25;;;13.02;;
21424;SDS011;10873;51.132;16.848;2022-12-18T04:33:14;18.23;;;12.70;;
21424;SDS011;10873;51.132;16.848;2022-12-18T04:35:42;17.77;;;12.63;;
21424;SDS011;10873;51.132;16.848;2022-12-18T04:38:09;19.33;;;12.57;;
21424;SDS011;10873;51.132;16.848;2022-12-18T04:40:35;20.33;;;13.55;;
21424;SDS011;10873;51.132;16.848;2022-12-18T04:43:02;19.48;;;13.25;;
21424;SDS011;10873;51.132;16.848;2022-12-18T04:45:28;18.88;;;12.88;;
21424;SDS011;10873;51.132;16.848;2022-12-18T04:47:58;22.35;;;13.70;;
21424;SDS011;10873;51.132;16.848;2022-12-18T04:50:25;19.08;;;12.75;;
21424;SDS011;10873;51.132;16.848;2022-12-18T04:52:51;21.40;;;13.57;;
21424;SDS011;10873;51.132;16.848;2022-12-18T04:55:18;17.83;;;12.57;;
21424;SDS011;10873;51.132;16.848;2022-12-18T04:57:44;18.30;;;12.20;;
21424;SDS011;10873;51.132;16.848;2022-12-18T05:00:10;18.30;;;12.68;;
21424;SDS011;10873;51.132;16.848;2022-12-18T05:02:38;18.83;;;12.27;;
21424;SDS011;10873;51.132;16.848;2022-12-18T05:05:05;20.85;;;14.05;;
21424;SDS011;10873;51.132;16.848;2022-12-18T05:07:32;20.55;;;13.60;;
21424;SDS011;10873;51.132;16.848;2022-12-18T05:09:58;19.08;;;13.63;;
21424;SDS011;10873;51.132;16.848;2022-12-18T05:12:24;18.33;;;12.80;;
21424;SDS011;10873;51.132;16.848;2022-12-18T05:14:50;19.65;;;13.82;;
21424;SDS011;10873;51.132;16.848;2022-12-18T05:17:16;18.10;;;13.50;;
21424;SDS011;10873;51.132;16.848;2022-12-18T05:19:42;20.70;;;12.82;;
21424;SDS011;10873;51.132;16.848;2022-12-18T05:22:10;19.10;;;12.55;;
21424;SDS011;10873;51.132;16.848;2022-12-18T05:24:36;19.00;;;13.10;;
21424;SDS011;10873;51.132;16.848;2022-12-18T05:27:02;19.80;;;13.40;;
21424;SDS011;10873;51.132;16.848;2022-12-18T05:29:28;20.10;;;13.13;;
21424;SDS011;10873;51.132;16.848;2022-12-18T05:31:54;18.70;;;12.95;;
21424;SDS011;10873;51.132;16.848;2022-12-18T05:34:20;19.85;;;13.73;;
21424;SDS011;10873;51.132;16.848;2022-12-18T05:36:46;18.92;;;13.50;;
21424;SDS011;10873;51.132;16.848;2022-12-18T05:39:14;21.50;;;13.85;;
21424;SDS011;10873;51.132;16.848;2022-12-18T05:41:40;18.27;;;12.52;;
21424;SDS011;10873;51.132;16.848;2022-12-18T05:44:06;19.50;;;13.43;;
21424;SDS011;10873;51.132;16.848;2022-12-18T05:46:32;19.70;;;13.25;;
21424;SDS011;10873;51.132;16.848;2022-12-18T05:48:59;21.00;;;13.75;;
21424;SDS011;10873;51.132;16.848;2022-12-18T05:51:26;18.13;;;12.82;;
21424;SDS011;10873;51.132;16.848;2022-12-18T05:53:54;18.67;;;12.82;;
21424;SDS011;10873;51.132;16.848;2022-12-18T05:56:22;19.08;;;13.35;;
21424;SDS011;10873;51.132;16.848;2022-12-18T05:58:50;20.17;;;13.15;;
21424;SDS011;10873;51.132;16.848;2022-12-18T06:01:18;17.83;;;12.35;;
21424;SDS011;10873;51.132;16.848;2022-12-18T06:03:45;19.00;;;13.02;;
21424;SDS011;10873;51.132;16.848;2022-12-18T06:06:14;18.02;;;13.05;;
21424;SDS011;10873;51.132;16.848;2022-12-18T06:08:41;18.88;;;13.40;;
21424;SDS011;10873;51.132;16.848;2022-12-18T06:11:07;19.45;;;13.65;;
21424;SDS011;10873;51.132;16.848;2022-12-18T06:13:34;19.42;;;13.50;;
21424;SDS011;10873;51.132;16.848;2022-12-18T06:16:01;18.00;;;13.18;;
21424;SDS011;10873;51.132;16.848;2022-12-18T06:18:28;18.67;;;13.85;;
21424;SDS011;10873;51.132;16.848;2022-12-18T06:20:54;19.95;;;14.60;;
21424;SDS011;10873;51.132;16.848;2022-12-18T06:23:21;20.02;;;14.13;;
21424;SDS011;10873;51.132;16.848;2022-12-18T06:25:47;20.00;;;14.35;;
21424;SDS011;10873;51.132;16.848;2022-12-18T06:28:13;22.55;;;15.32;;
21424;SDS011;10873;51.132;16.848;2022-12-18T06:30:40;19.63;;;14.13;;
21424;SDS011;10873;51.132;16.848;2022-12-18T06:33:08;20.63;;;15.45;;
21424;SDS011;10873;51.132;16.848;2022-12-18T06:35:34;20.35;;;14.60;;
21424;SDS011;10873;51.132;16.848;2022-12-18T06:38:00;25.63;;;16.67;;
21424;SDS011;10873;51.132;16.848;2022-12-18T06:40:27;22.95;;;15.75;;
21424;SDS011;10873;51.132;16.848;2022-12-18T06:42:53;22.95;;;16.08;;
21424;SDS011;10873;51.132;16.848;2022-12-18T06:45:19;25.48;;;16.33;;
21424;SDS011;10873;51.132;16.848;2022-12-18T06:47:46;23.50;;;16.30;;
21424;SDS011;10873;51.132;16.848;2022-12-18T06:50:13;24.77;;;17.05;;
21424;SDS011;10873;51.132;16.848;2022-12-18T06:52:39;25.13;;;17.40;;
21424;SDS011;10873;51.132;16.848;2022-12-18T06:55:06;24.25;;;16.73;;
21424;SDS011;10873;51.132;16.848;2022-12-18T06:57:33;27.55;;;17.65;;
21424;SDS011;10873;51.132;16.848;2022-12-18T07:00:00;34.60;;;19.50;;
21424;SDS011;10873;51.132;16.848;2022-12-18T07:02:25;34.15;;;20.20;;
21424;SDS011;10873;51.132;16.848;2022-12-18T07:04:53;34.90;;;19.00;;
21424;SDS011;10873;51.132;16.848;2022-12-18T07:07:19;31.77;;;19.30;;
21424;SDS011;10873;51.132;16.848;2022-12-18T07:09:45;34.05;;;19.80;;
21424;SDS011;10873;51.132;16.848;2022-12-18T07:12:11;31.98;;;19.88;;
21424;SDS011;10873;51.132;16.848;2022-12-18T07:14:37;35.08;;;19.23;;
21424;SDS011;10873;51.132;16.848;2022-12-18T07:17:03;28.90;;;20.00;;
21424;SDS011;10873;51.132;16.848;2022-12-18T07:19:29;34.80;;;20.73;;
21424;SDS011;10873;51.132;16.848;2022-12-18T07:21:56;29.67;;;19.38;;
21424;SDS011;10873;51.132;16.848;2022-12-18T07:24:22;29.58;;;18.15;;
21424;SDS011;10873;51.132;16.848;2022-12-18T07:26:48;30.42;;;19.83;;
21424;SDS011;10873;51.132;16.848;2022-12-18T07:29:14;27.95;;;20.15;;
21424;SDS011;10873;51.132;16.848;2022-12-18T07:31:40;28.83;;;19.65;;
21424;SDS011;10873;51.132;16.848;2022-12-18T07:34:09;32.22;;;19.83;;
21424;SDS011;10873;51.132;16.848;2022-12-18T07:36:35;29.20;;;20.20;;
21424;SDS011;10873;51.132;16.848;2022-12-18T07:39:03;28.10;;;19.25;;
21424;SDS011;10873;51.132;16.848;2022-12-18T07:41:29;32.78;;;18.65;;
21424;SDS011;10873;51.132;16.848;2022-12-18T07:43:55;25.98;;;18.80;;
21424;SDS011;10873;51.132;16.848;2022-12-18T07:46:21;28.35;;;18.48;;
21424;SDS011;10873;51.132;16.848;2022-12-18T07:48:47;29.08;;;18.33;;
21424;SDS011;10873;51.132;16.848;2022-12-18T07:51:13;26.92;;;18.67;;
21424;SDS011;10873;51.132;16.848;2022-12-18T07:53:40;26.25;;;17.52;;
21424;SDS011;10873;51.132;16.848;2022-12-18T07:56:08;24.17;;;17.25;;
21424;SDS011;10873;51.132;16.848;2022-12-18T07:58:36;27.30;;;17.65;;
21424;SDS011;10873;51.132;16.848;2022-12-18T08:01:02;25.90;;;17.00;;
21424;SDS011;10873;51.132;16.848;2022-12-18T08:03:29;25.20;;;17.75;;
21424;SDS011;10873;51.132;16.848;2022-12-18T08:05:57;25.98;;;17.52;;
21424;SDS011;10873;51.132;16.848;2022-12-18T08:08:24;25.65;;;17.50;;
21424;SDS011;10873;51.132;16.848;2022-12-18T08:10:50;28.27;;;18.75;;
21424;SDS011;10873;51.132;16.848;2022-12-18T08:13:18;27.80;;;18.60;;
21424;SDS011;10873;51.132;16.848;2022-12-18T08:15:43;27.40;;;18.15;;
21424;SDS011;10873;51.132;16.848;2022-12-18T08:18:09;25.63;;;17.80;;
21424;SDS011;10873;51.132;16.848;2022-12-18T08:20:36;28.17;;;18.95;;
21424;SDS011;10873;51.132;16.848;2022-12-18T08:23:01;26.50;;;18.60;;
21424;SDS011;10873;51.132;16.848;2022-12-18T08:25:27;25.60;;;18.13;;
21424;SDS011;10873;51.132;16.848;2022-12-18T08:27:53;26.55;;;19.30;;
21424;SDS011;10873;51.132;16.848;2022-12-18T08:30:23;26.50;;;19.30;;
21424;SDS011;10873;51.132;16.848;2022-12-18T08:32:50;26.35;;;19.05;;
21424;SDS011;10873;51.132;16.848;2022-12-18T08:35:17;26.88;;;18.80;;
21424;SDS011;10873;51.132;16.848;2022-12-18T08:37:42;24.95;;;19.20;;
21424;SDS011;10873;51.132;16.848;2022-12-18T08:40:09;25.75;;;18.38;;
21424;SDS011;10873;51.132;16.848;2022-12-18T08:42:35;27.48;;;19.40;;
21424;SDS011;10873;51.132;16.848;2022-12-18T08:45:20;27.15;;;19.55;;
21424;SDS011;10873;51.132;16.848;2022-12-18T08:47:47;26.23;;;19.45;;
21424;SDS011;10873;51.132;16.848;2022-12-18T08:50:13;28.13;;;19.40;;
21424;SDS011;10873;51.132;16.848;2022-12-18T08:52:40;26.92;;;19.08;;
21424;SDS011;10873;51.132;16.848;2022-12-18T08:55:06;28.13;;;19.25;;
21424;SDS011;10873;51.132;16.848;2022-12-18T08:57:33;27.10;;;19.02;;
21424;SDS011;10873;51.132;16.848;2022-12-18T08:59:59;27.73;;;19.42;;
21424;SDS011;10873;51.132;16.848;2022-12-18T09:02:25;25.13;;;19.27;;
21424;SDS011;10873;51.132;16.848;2022-12-18T09:04:53;27.73;;;19.98;;
21424;SDS011;10873;51.132;16.848;2022-12-18T09:07:19;28.85;;;20.25;;
21424;SDS011;10873;51.132;16.848;2022-12-18T09:09:45;32.03;;;20.58;;
21424;SDS011;10873;51.132;16.848;2022-12-18T09:12:11;28.25;;;20.02;;
21424;SDS011;10873;51.132;16.848;2022-12-18T09:14:37;29.67;;;20.48;;
21424;SDS011;10873;51.132;16.848;2022-12-18T09:17:03;28.58;;;20.40;;
21424;SDS011;10873;51.132;16.848;2022-12-18T09:19:29;28.17;;;19.27;;
21424;SDS011;10873;51.132;16.848;2022-12-18T09:21:56;27.10;;;19.92;;
21424;SDS011;10873;51.132;16.848;2022-12-18T09:24:22;27.00;;;19.65;;
21424;SDS011;10873;51.132;16.848;2022-12-18T09:26:48;27.52;;;19.88;;
21424;SDS011;10873;51.132;16.848;2022-12-18T09:29:18;26.42;;;19.77;;
21424;SDS011;10873;51.132;16.848;2022-12-18T09:31:44;28.92;;;20.45;;
21424;SDS011;10873;51.132;16.848;2022-12-18T09:34:10;26.02;;;19.58;;
21424;SDS011;10873;51.132;16.848;2022-12-18T09:36:36;29.02;;;20.75;;
21424;SDS011;10873;51.132;16.848;2022-12-18T09:39:05;29.35;;;20.38;;
21424;SDS011;10873;51.132;16.848;2022-12-18T09:41:41;30.25;;;21.05;;
21424;SDS011;10873;51.132;16.848;2022-12-18T09:44:12;25.55;;;19.48;;
21424;SDS011;10873;51.132;16.848;2022-12-18T09:46:43;27.27;;;20.33;;
21424;SDS011;10873;51.132;16.848;2022-12-18T09:49:13;30.23;;;21.25;;
21424;SDS011;10873;51.132;16.848;2022-12-18T09:51:43;26.65;;;19.70;;
21424;SDS011;10873;51.132;16.848;2022-12-18T09:54:14;27.90;;;19.77;;
21424;SDS011;10873;51.132;16.848;2022-12-18T09:56:45;28.45;;;20.05;;
21424;SDS011;10873;51.132;16.848;2022-12-18T09:59:15;28.13;;;20.35;;
21424;SDS011;10873;51.132;16.848;2022-12-18T10:01:44;30.55;;;20.77;;
21424;SDS011;10873;51.132;16.848;2022-12-18T10:04:10;30.08;;;21.30;;
21424;SDS011;10873;51.132;16.848;2022-12-18T10:06:38;28.48;;;20.60;;
21424;SDS011;10873;51.132;16.848;2022-12-18T10:09:09;29.50;;;20.98;;
21424;SDS011;10873;51.132;16.848;2022-12-18T10:11:43;27.13;;;19.75;;
21424;SDS011;10873;51.132;16.848;2022-12-18T10:14:21;29.50;;;21.52;;
21424;SDS011;10873;51.132;16.848;2022-12-18T10:16:57;28.75;;;20.27;;
21424;SDS011;10873;51.132;16.848;2022-12-18T10:19:34;29.48;;;21.02;;
21424;SDS011;10873;51.132;16.848;2022-12-18T10:22:09;31.55;;;21.75;;
21424;SDS011;10873;51.132;16.848;2022-12-18T10:24:44;30.55;;;21.27;;
21424;SDS011;10873;51.132;16.848;2022-12-18T10:27:19;30.83;;;22.00;;
21424;SDS011;10873;51.132;16.848;2022-12-18T10:29:49;28.65;;;20.70;;
21424;SDS011;10873;51.132;16.848;2022-12-18T10:32:15;31.88;;;21.77;;
21424;SDS011;10873;51.132;16.848;2022-12-18T10:34:45;30.45;;;21.65;;
21424;SDS011;10873;51.132;16.848;2022-12-18T10:37:12;30.45;;;20.60;;
21424;SDS011;10873;51.132;16.848;2022-12-18T10:39:44;30.65;;;21.15;;
21424;SDS011;10873;51.132;16.848;2022-12-18T10:42:11;30.95;;;22.05;;
21424;SDS011;10873;51.132;16.848;2022-12-18T10:44:43;31.20;;;21.58;;
21424;SDS011;10873;51.132;16.848;2022-12-18T10:47:11;32.70;;;22.65;;
21424;SDS011;10873;51.132;16.848;2022-12-18T10:49:42;31.02;;;21.55;;
21424;SDS011;10873;51.132;16.848;2022-12-18T10:52:14;30.92;;;22.15;;
21424;SDS011;10873;51.132;16.848;2022-12-18T10:54:49;31.55;;;22.77;;
21424;SDS011;10873;51.132;16.848;2022-12-18T10:57:20;30.40;;;21.95;;
21424;SDS011;10873;51.132;16.848;2022-12-18T10:59:57;33.88;;;22.20;;
21424;SDS011;10873;51.132;16.848;2022-12-18T11:02:25;31.38;;;22.05;;
21424;SDS011;10873;51.132;16.848;2022-12-18T11:04:53;30.42;;;21.88;;
21424;SDS011;10873;51.132;16.848;2022-12-18T11:07:19;30.88;;;21.40;;
21424;SDS011;10873;51.132;16.848;2022-12-18T11:09:45;31.08;;;21.45;;
21424;SDS011;10873;51.132;16.848;2022-12-18T11:12:30;29.25;;;21.15;;
21424;SDS011;10873;51.132;16.848;2022-12-18T11:14:57;30.55;;;21.48;;
21424;SDS011;10873;51.132;16.848;2022-12-18T11:17:27;30.17;;;21.77;;
21424;SDS011;10873;51.132;16.848;2022-12-18T11:19:56;31.95;;;21.77;;
21424;SDS011;10873;51.132;16.848;2022-12-18T11:22:24;31.23;;;22.08;;
21424;SDS011;10873;51.132;16.848;2022-12-18T11:24:53;34.03;;;22.75;;
21424;SDS011;10873;51.132;16.848;2022-12-18T11:27:24;32.70;;;22.45;;
21424;SDS011;10873;51.132;16.848;2022-12-18T11:29:50;31.52;;;21.92;;
21424;SDS011;10873;51.132;16.848;2022-12-18T11:32:22;32.58;;;22.50;;
21424;SDS011;10873;51.132;16.848;2022-12-18T11:34:57;33.10;;;22.85;;
21424;SDS011;10873;51.132;16.848;2022-12-18T11:37:26;31.13;;;21.55;;
21424;SDS011;10873;51.132;16.848;2022-12-18T11:39:54;32.33;;;23.35;;
21424;SDS011;10873;51.132;16.848;2022-12-18T11:42:27;34.47;;;24.02;;
21424;SDS011;10873;51.132;16.848;2022-12-18T11:45:02;36.20;;;24.33;;
21424;SDS011;10873;51.132;16.848;2022-12-18T11:47:40;34.75;;;24.02;;
21424;SDS011;10873;51.132;16.848;2022-12-18T11:50:12;36.65;;;23.52;;
21424;SDS011;10873;51.132;16.848;2022-12-18T11:52:41;34.72;;;23.92;;
21424;SDS011;10873;51.132;16.848;2022-12-18T11:55:10;35.15;;;24.00;;
21424;SDS011;10873;51.132;16.848;2022-12-18T11:57:39;35.53;;;24.23;;
21424;SDS011;10873;51.132;16.848;2022-12-18T12:00:13;32.85;;;22.50;;
21424;SDS011;10873;51.132;16.848;2022-12-18T12:02:49;31.23;;;22.20;;
21424;SDS011;10873;51.132;16.848;2022-12-18T12:05:37;35.42;;;23.27;;
21424;SDS011;10873;51.132;16.848;2022-12-18T12:08:13;35.30;;;24.00;;
21424;SDS011;10873;51.132;16.848;2022-12-18T12:10:46;31.00;;;22.42;;
21424;SDS011;10873;51.132;16.848;2022-12-18T12:13:23;34.55;;;22.67;;
21424;SDS011;10873;51.132;16.848;2022-12-18T12:16:01;31.70;;;21.90;;
21424;SDS011;10873;51.132;16.848;2022-12-18T12:18:37;32.50;;;21.77;;
21424;SDS011;10873;51.132;16.848;2022-12-18T12:21:15;32.55;;;21.40;;
21424;SDS011;10873;51.132;16.848;2022-12-18T12:23:47;32.55;;;22.35;;
21424;SDS011;10873;51.132;16.848;2022-12-18T12:26:19;31.35;;;21.98;;
21424;SDS011;10873;51.132;16.848;2022-12-18T12:28:55;31.27;;;21.35;;
21424;SDS011;10873;51.132;16.848;2022-12-18T12:31:38;30.88;;;20.40;;
21424;SDS011;10873;51.132;16.848;2022-12-18T12:34:13;30.95;;;20.52;;
21424;SDS011;10873;51.132;16.848;2022-12-18T12:36:46;30.95;;;21.55;;
21424;SDS011;10873;51.132;16.848;2022-12-18T12:39:21;31.23;;;21.45;;
21424;SDS011;10873;51.132;16.848;2022-12-18T12:41:52;31.13;;;21.25;;
21424;SDS011;10873;51.132;16.848;2022-12-18T12:44:41;31.45;;;21.42;;
21424;SDS011;10873;51.132;16.848;2022-12-18T12:47:11;32.72;;;21.77;;
21424;SDS011;10873;51.132;16.848;2022-12-18T12:49:41;34.53;;;21.88;;
21424;SDS011;10873;51.132;16.848;2022-12-18T12:52:14;33.60;;;22.77;;
21424;SDS011;10873;51.132;16.848;2022-12-18T12:54:46;33.53;;;21.52;;
21424;SDS011;10873;51.132;16.848;2022-12-18T12:57:14;33.20;;;22.70;;
21424;SDS011;10873;51.132;16.848;2022-12-18T12:59:47;34.15;;;22.48;;
21424;SDS011;10873;51.132;16.848;2022-12-18T13:02:22;31.42;;;21.92;;
21424;SDS011;10873;51.132;16.848;2022-12-18T13:04:56;34.70;;;23.05;;
21424;SDS011;10873;51.132;16.848;2022-12-18T13:07:27;35.67;;;23.27;;
21424;SDS011;10873;51.132;16.848;2022-12-18T13:10:14;38.35;;;24.25;;
21424;SDS011;10873;51.132;16.848;2022-12-18T13:12:51;35.80;;;23.25;;
21424;SDS011;10873;51.132;16.848;2022-12-18T13:15:23;34.47;;;23.88;;
21424;SDS011;10873;51.132;16.848;2022-12-18T13:18:02;36.03;;;24.15;;
21424;SDS011;10873;51.132;16.848;2022-12-18T13:20:40;41.30;;;24.50;;
21424;SDS011;10873;51.132;16.848;2022-12-18T13:23:23;37.47;;;23.80;;
21424;SDS011;10873;51.132;16.848;2022-12-18T13:25:56;39.85;;;25.00;;
21424;SDS011;10873;51.132;16.848;2022-12-18T13:28:22;36.60;;;23.67;;
21424;SDS011;10873;51.132;16.848;2022-12-18T13:31:11;38.85;;;24.85;;
21424;SDS011;10873;51.132;16.848;2022-12-18T13:33:42;40.10;;;24.40;;
21424;SDS011;10873;51.132;16.848;2022-12-18T13:36:11;38.05;;;24.98;;
21424;SDS011;10873;51.132;16.848;2022-12-18T13:38:40;38.58;;;24.75;;
21424;SDS011;10873;51.132;16.848;2022-12-18T13:41:21;38.38;;;24.05;;
21424;SDS011;10873;51.132;16.848;2022-12-18T13:43:49;39.20;;;25.70;;
21424;SDS011;10873;51.132;16.848;2022-12-18T13:46:19;40.40;;;26.23;;
21424;SDS011;10873;51.132;16.848;2022-12-18T13:48:49;42.55;;;26.52;;
21424;SDS011;10873;51.132;16.848;2022-12-18T13:51:23;37.20;;;25.17;;
21424;SDS011;10873;51.132;16.848;2022-12-18T13:53:51;39.88;;;25.92;;
21424;SDS011;10873;51.132;16.848;2022-12-18T13:56:21;39.22;;;26.08;;
21424;SDS011;10873;51.132;16.848;2022-12-18T14:01:43;41.30;;;26.80;;
21424;SDS011;10873;51.132;16.848;2022-12-18T14:04:18;40.75;;;26.25;;
21424;SDS011;10873;51.132;16.848;2022-12-18T14:06:49;38.70;;;25.92;;
21424;SDS011;10873;51.132;16.848;2022-12-18T14:09:18;39.40;;;26.08;;
21424;SDS011;10873;51.132;16.848;2022-12-18T14:11:49;43.58;;;25.85;;
21424;SDS011;10873;51.132;16.848;2022-12-18T14:14:17;41.08;;;25.88;;
21424;SDS011;10873;51.132;16.848;2022-12-18T14:16:45;40.92;;;25.98;;
21424;SDS011;10873;51.132;16.848;2022-12-18T14:19:13;38.58;;;24.83;;
21424;SDS011;10873;51.132;16.848;2022-12-18T14:21:45;43.20;;;27.38;;
21424;SDS011;10873;51.132;16.848;2022-12-18T14:24:13;40.97;;;26.15;;
21424;SDS011;10873;51.132;16.848;2022-12-18T14:26:40;40.58;;;25.65;;